Etusivu
METAR-TAF:

METAR-TAF

Lentoasemat :

Rivas, Nicaragua

Leveyspiiri: 11-25N, Pituuspiiri: 085-50W, korkeus merenpinnasta: 53 m

Tämänhetkinen sää

Tämä raportti tehtiin 51 minuuttia sitten, kello 22.00 UTC
Tuuli 6 kn idästä/kaakosta
Lämpötila 32°C
Kosteus 46%
Ilmanpaine 1010 hPa
Näkyvyys 10 km tai enemmän
Muutamia pilviä 1800 ft:n korkeudessa

METAR: MNRS 282200Z 12006KT 9999 FEW018 32/19 Q1010

Aika: 16:51 (22:51 UTC)


TAF: puuttuu

Säähavainnot ja -ennusteet yli 4000 lentoasemalta (METAR- ja TAF-raportit).

Käytössä olevat sääasemat on merkitty karttaan keltaisilla ja punaisilla pisteillä.

Aseta hiiri pisteen päälle nähdäksesi sääaseman nimen.

Klikkaa sitten nähdäksesi säähavainnot ja -ennusteet.

Kartan vaihtaminen: klikkaa mustalla rastilla varustettuja vihreitä pisteitä, niin voit zoomata sisään; viivalla varustettua vihreää pistettä, niin voit zoomata ulos tai vihreitä nuolia, niin pääset viereisille kartoille.


METAR-TAF: